sensor_id;sensor_type;location;lat;lon;timestamp;temperature;humidity
68109;SHT30;54893;49.864;19.084;2023-02-26T00:01:55;0.28;96.31
68109;SHT30;54893;49.864;19.084;2023-02-26T00:07:00;0.31;96.04
68109;SHT30;54893;49.864;19.084;2023-02-26T00:12:00;0.14;96.57
68109;SHT30;54893;49.864;19.084;2023-02-26T00:22:26;0.18;96.22
68109;SHT30;54893;49.864;19.084;2023-02-26T00:27:27;0.34;95.94
68109;SHT30;54893;49.864;19.084;2023-02-26T00:32:27;0.23;95.90
68109;SHT30;54893;49.864;19.084;2023-02-26T00:37:54;0.23;96.12
68109;SHT30;54893;49.864;19.084;2023-02-26T00:42:57;0.20;95.44
68109;SHT30;54893;49.864;19.084;2023-02-26T00:48:27;0.23;95.17
68109;SHT30;54893;49.864;19.084;2023-02-26T00:53:36;0.17;95.48
68109;SHT30;54893;49.864;19.084;2023-02-26T00:58:41;0.11;95.44
68109;SHT30;54893;49.864;19.084;2023-02-26T01:03:41;0.16;95.55
68109;SHT30;54893;49.864;19.084;2023-02-26T01:08:49;0.10;95.55
68109;SHT30;54893;49.864;19.084;2023-02-26T01:13:52;0.16;94.87
68109;SHT30;54893;49.864;19.084;2023-02-26T01:19:00;0.23;94.80
68109;SHT30;54893;49.864;19.084;2023-02-26T01:24:04;0.21;94.36
68109;SHT30;54893;49.864;19.084;2023-02-26T01:29:05;0.13;94.63
68109;SHT30;54893;49.864;19.084;2023-02-26T01:34:14;0.05;95.05
68109;SHT30;54893;49.864;19.084;2023-02-26T01:39:27;0.28;94.08
68109;SHT30;54893;49.864;19.084;2023-02-26T01:44:41;0.07;94.81
68109;SHT30;54893;49.864;19.084;2023-02-26T01:49:47;0.20;93.86
68109;SHT30;54893;49.864;19.084;2023-02-26T01:54:47;0.21;93.67
68109;SHT30;54893;49.864;19.084;2023-02-26T01:59:50;0.03;94.24
68109;SHT30;54893;49.864;19.084;2023-02-26T02:04:52;0.02;93.62
68109;SHT30;54893;49.864;19.084;2023-02-26T02:09:52;0.09;93.69
68109;SHT30;54893;49.864;19.084;2023-02-26T02:36:27;0.11;93.13
68109;SHT30;54893;49.864;19.084;2023-02-26T02:41:38;-0.08;94.01
68109;SHT30;54893;49.864;19.084;2023-02-26T02:46:42;-0.08;93.46
68109;SHT30;54893;49.864;19.084;2023-02-26T02:51:56;-0.14;94.15
68109;SHT30;54893;49.864;19.084;2023-02-26T02:57:14;-0.34;94.98
68109;SHT30;54893;49.864;19.084;2023-02-26T03:08:04;-0.39;96.15
68109;SHT30;54893;49.864;19.084;2023-02-26T03:13:05;-0.44;96.26
68109;SHT30;54893;49.864;19.084;2023-02-26T03:23:37;-0.24;94.98
68109;SHT30;54893;49.864;19.084;2023-02-26T03:44:16;-0.38;95.64
68109;SHT30;54893;49.864;19.084;2023-02-26T03:50:12;-0.41;95.41
68109;SHT30;54893;49.864;19.084;2023-02-26T03:54:50;-0.34;94.80
68109;SHT30;54893;49.864;19.084;2023-02-26T03:59:52;-0.28;93.91
68109;SHT30;54893;49.864;19.084;2023-02-26T04:04:58;-0.49;94.08
68109;SHT30;54893;49.864;19.084;2023-02-26T04:09:59;-0.38;93.92
68109;SHT30;54893;49.864;19.084;2023-02-26T04:14:59;-0.38;94.12
68109;SHT30;54893;49.864;19.084;2023-02-26T04:20:00;-0.32;93.53
68109;SHT30;54893;49.864;19.084;2023-02-26T04:25:00;-0.39;93.26
68109;SHT30;54893;49.864;19.084;2023-02-26T04:30:00;-0.45;93.06
68109;SHT30;54893;49.864;19.084;2023-02-26T04:35:01;-0.52;93.17
68109;SHT30;54893;49.864;19.084;2023-02-26T04:40:01;-0.62;93.46
68109;SHT30;54893;49.864;19.084;2023-02-26T04:45:05;-0.57;93.02
68109;SHT30;54893;49.864;19.084;2023-02-26T04:50:07;-0.59;91.98
68109;SHT30;54893;49.864;19.084;2023-02-26T04:55:07;-0.65;91.92
68109;SHT30;54893;49.864;19.084;2023-02-26T05:00:08;-0.73;92.21
68109;SHT30;54893;49.864;19.084;2023-02-26T05:05:09;-0.79;92.71
68109;SHT30;54893;49.864;19.084;2023-02-26T05:10:10;-0.86;92.94
68109;SHT30;54893;49.864;19.084;2023-02-26T05:15:10;-0.73;91.51
68109;SHT30;54893;49.864;19.084;2023-02-26T05:20:11;-0.68;91.39
68109;SHT30;54893;49.864;19.084;2023-02-26T05:25:11;-0.75;90.88
68109;SHT30;54893;49.864;19.084;2023-02-26T05:30:14;-0.78;90.96
68109;SHT30;54893;49.864;19.084;2023-02-26T05:35:14;-0.81;91.37
68109;SHT30;54893;49.864;19.084;2023-02-26T05:40:15;-0.55;89.58
68109;SHT30;54893;49.864;19.084;2023-02-26T05:45:15;-0.66;89.62
68109;SHT30;54893;49.864;19.084;2023-02-26T05:50:15;-0.82;89.83
68109;SHT30;54893;49.864;19.084;2023-02-26T05:55:16;-0.79;89.97
68109;SHT30;54893;49.864;19.084;2023-02-26T06:00:16;-0.89;90.16
68109;SHT30;54893;49.864;19.084;2023-02-26T06:05:17;-0.85;89.30
68109;SHT30;54893;49.864;19.084;2023-02-26T06:10:17;-0.83;88.75
68109;SHT30;54893;49.864;19.084;2023-02-26T06:15:18;-0.75;88.24
68109;SHT30;54893;49.864;19.084;2023-02-26T06:20:18;-0.71;87.62
68109;SHT30;54893;49.864;19.084;2023-02-26T06:25:18;-0.89;88.23
68109;SHT30;54893;49.864;19.084;2023-02-26T06:30:19;-0.73;88.49
68109;SHT30;54893;49.864;19.084;2023-02-26T06:35:19;-0.62;88.18
68109;SHT30;54893;49.864;19.084;2023-02-26T06:40:20;-0.58;87.53
68109;SHT30;54893;49.864;19.084;2023-02-26T06:45:21;-0.59;87.86
68109;SHT30;54893;49.864;19.084;2023-02-26T06:50:21;-0.83;88.27
68109;SHT30;54893;49.864;19.084;2023-02-26T06:55:22;-0.83;88.87
68109;SHT30;54893;49.864;19.084;2023-02-26T07:00:26;-0.93;87.34
68109;SHT30;54893;49.864;19.084;2023-02-26T07:05:26;-0.82;88.47
68109;SHT30;54893;49.864;19.084;2023-02-26T07:10:26;-0.69;87.80
68109;SHT30;54893;49.864;19.084;2023-02-26T07:15:27;-0.42;87.29
68109;SHT30;54893;49.864;19.084;2023-02-26T07:20:28;-0.47;87.86
68109;SHT30;54893;49.864;19.084;2023-02-26T07:25:31;-0.41;87.62
68109;SHT30;54893;49.864;19.084;2023-02-26T07:30:32;-0.07;87.60
68109;SHT30;54893;49.864;19.084;2023-02-26T07:35:32;0.21;86.60
68109;SHT30;54893;49.864;19.084;2023-02-26T07:40:33;0.40;86.01
68109;SHT30;54893;49.864;19.084;2023-02-26T07:45:33;0.65;83.36
68109;SHT30;54893;49.864;19.084;2023-02-26T07:50:33;0.53;82.15
68109;SHT30;54893;49.864;19.084;2023-02-26T07:55:34;0.56;82.91
68109;SHT30;54893;49.864;19.084;2023-02-26T08:00:34;0.27;84.00
68109;SHT30;54893;49.864;19.084;2023-02-26T08:05:34;0.34;83.45
68109;SHT30;54893;49.864;19.084;2023-02-26T08:10:35;0.47;84.09
68109;SHT30;54893;49.864;19.084;2023-02-26T08:15:35;0.62;83.68
68109;SHT30;54893;49.864;19.084;2023-02-26T08:20:36;0.34;82.73
68109;SHT30;54893;49.864;19.084;2023-02-26T08:25:36;0.41;83.05
68109;SHT30;54893;49.864;19.084;2023-02-26T08:30:37;0.23;81.96
68109;SHT30;54893;49.864;19.084;2023-02-26T08:35:37;0.17;81.74
68109;SHT30;54893;49.864;19.084;2023-02-26T08:40:38;0.31;81.92
68109;SHT30;54893;49.864;19.084;2023-02-26T08:45:38;0.78;80.11
68109;SHT30;54893;49.864;19.084;2023-02-26T08:50:39;0.78;78.95
68109;SHT30;54893;49.864;19.084;2023-02-26T08:55:39;0.92;77.32
68109;SHT30;54893;49.864;19.084;2023-02-26T09:00:39;0.98;78.12
68109;SHT30;54893;49.864;19.084;2023-02-26T09:05:40;1.08;77.76
68109;SHT30;54893;49.864;19.084;2023-02-26T09:10:41;1.01;76.58
68109;SHT30;54893;49.864;19.084;2023-02-26T09:15:41;0.82;75.92
68109;SHT30;54893;49.864;19.084;2023-02-26T09:20:43;0.84;76.65
68109;SHT30;54893;49.864;19.084;2023-02-26T09:25:43;0.88;75.65
68109;SHT30;54893;49.864;19.084;2023-02-26T09:30:43;1.09;75.67
68109;SHT30;54893;49.864;19.084;2023-02-26T09:35:47;1.46;75.21
68109;SHT30;54893;49.864;19.084;2023-02-26T09:46:17;1.06;77.25
68109;SHT30;54893;49.864;19.084;2023-02-26T09:51:21;0.43;78.55
68109;SHT30;54893;49.864;19.084;2023-02-26T09:56:24;-0.22;84.06
68109;SHT30;54893;49.864;19.084;2023-02-26T10:01:31;-0.76;88.42
68109;SHT30;54893;49.864;19.084;2023-02-26T10:07:05;-0.89;90.48
68109;SHT30;54893;49.864;19.084;2023-02-26T10:12:15;-0.68;87.98
68109;SHT30;54893;49.864;19.084;2023-02-26T10:22:37;-0.51;86.22
68109;SHT30;54893;49.864;19.084;2023-02-26T10:28:05;0.17;85.16
68109;SHT30;54893;49.864;19.084;2023-02-26T10:33:19;0.75;84.00
68109;SHT30;54893;49.864;19.084;2023-02-26T10:38:25;0.67;82.74
68109;SHT30;54893;49.864;19.084;2023-02-26T10:43:41;1.28;80.96
68109;SHT30;54893;49.864;19.084;2023-02-26T10:48:54;2.07;79.99
68109;SHT30;54893;49.864;19.084;2023-02-26T10:54:03;2.78;78.19
68109;SHT30;54893;49.864;19.084;2023-02-26T10:59:05;2.85;78.30
68109;SHT30;54893;49.864;19.084;2023-02-26T11:04:10;2.95;75.48
68109;SHT30;54893;49.864;19.084;2023-02-26T11:09:26;2.52;78.06
68109;SHT30;54893;49.864;19.084;2023-02-26T11:14:27;1.92;78.03
68109;SHT30;54893;49.864;19.084;2023-02-26T11:19:30;1.73;81.07
68109;SHT30;54893;49.864;19.084;2023-02-26T11:24:43;1.09;78.37
68109;SHT30;54893;49.864;19.084;2023-02-26T11:29:48;0.89;79.69
68109;SHT30;54893;49.864;19.084;2023-02-26T11:34:53;1.24;79.65
68109;SHT30;54893;49.864;19.084;2023-02-26T11:39:59;1.02;80.60
68109;SHT30;54893;49.864;19.084;2023-02-26T11:45:04;0.96;79.97
68109;SHT30;54893;49.864;19.084;2023-02-26T11:50:13;0.91;80.25
68109;SHT30;54893;49.864;19.084;2023-02-26T11:55:26;1.04;80.80
68109;SHT30;54893;49.864;19.084;2023-02-26T12:00:35;0.95;81.75
68109;SHT30;54893;49.864;19.084;2023-02-26T12:05:35;0.81;81.43
68109;SHT30;54893;49.864;19.084;2023-02-26T12:10:51;0.61;82.91
68109;SHT30;54893;49.864;19.084;2023-02-26T12:16:24;0.46;81.66
68109;SHT30;54893;49.864;19.084;2023-02-26T12:26:58;1.09;81.01
68109;SHT30;54893;49.864;19.084;2023-02-26T13:09:40;-0.13;89.05
68109;SHT30;54893;49.864;19.084;2023-02-26T13:20:11;0.53;84.02
68109;SHT30;54893;49.864;19.084;2023-02-26T13:25:24;0.74;82.40
68109;SHT30;54893;49.864;19.084;2023-02-26T13:30:31;0.82;82.04
68109;SHT30;54893;49.864;19.084;2023-02-26T13:35:36;0.67;81.54
68109;SHT30;54893;49.864;19.084;2023-02-26T13:45:50;0.84;81.38
68109;SHT30;54893;49.864;19.084;2023-02-26T14:01:54;0.71;79.11
68109;SHT30;54893;49.864;19.084;2023-02-26T14:07:13;0.65;80.54
68109;SHT30;54893;49.864;19.084;2023-02-26T14:27:32;0.17;82.32
68109;SHT30;54893;49.864;19.084;2023-02-26T14:37:39;0.33;82.42
68109;SHT30;54893;49.864;19.084;2023-02-26T14:42:43;0.13;81.79
68109;SHT30;54893;49.864;19.084;2023-02-26T14:47:47;0.39;81.57
68109;SHT30;54893;49.864;19.084;2023-02-26T15:04:36;-0.14;87.95
68109;SHT30;54893;49.864;19.084;2023-02-26T15:09:21;-0.25;88.18
68109;SHT30;54893;49.864;19.084;2023-02-26T15:25:28;-0.75;92.62
68109;SHT30;54893;49.864;19.084;2023-02-26T15:30:30;-0.79;92.96
68109;SHT30;54893;49.864;19.084;2023-02-26T15:35:31;-0.81;92.99
68109;SHT30;54893;49.864;19.084;2023-02-26T15:40:35;-0.81;92.46
68109;SHT30;54893;49.864;19.084;2023-02-26T15:45:40;-0.82;92.22
68109;SHT30;54893;49.864;19.084;2023-02-26T15:50:43;-0.85;91.28
68109;SHT30;54893;49.864;19.084;2023-02-26T15:55:48;-0.88;91.20
68109;SHT30;54893;49.864;19.084;2023-02-26T16:00:53;-0.93;92.36
68109;SHT30;54893;49.864;19.084;2023-02-26T16:05:56;-0.97;90.94
68109;SHT30;54893;49.864;19.084;2023-02-26T16:10:58;-0.92;91.13
68109;SHT30;54893;49.864;19.084;2023-02-26T16:16:06;-1.02;91.41
68109;SHT30;54893;49.864;19.084;2023-02-26T16:21:18;-1.10;91.30
68109;SHT30;54893;49.864;19.084;2023-02-26T16:26:36;-1.09;92.10
68109;SHT30;54893;49.864;19.084;2023-02-26T16:31:39;-1.09;91.70
68109;SHT30;54893;49.864;19.084;2023-02-26T16:36:40;-1.00;90.96
68109;SHT30;54893;49.864;19.084;2023-02-26T16:41:41;-1.03;90.90
68109;SHT30;54893;49.864;19.084;2023-02-26T16:46:42;-0.96;90.67
68109;SHT30;54893;49.864;19.084;2023-02-26T16:51:44;-0.99;90.81
68109;SHT30;54893;49.864;19.084;2023-02-26T16:56:47;-1.09;91.40
68109;SHT30;54893;49.864;19.084;2023-02-26T17:02:16;-1.19;92.18
68109;SHT30;54893;49.864;19.084;2023-02-26T17:07:31;-1.35;93.94
68109;SHT30;54893;49.864;19.084;2023-02-26T17:12:50;-1.44;93.14
68109;SHT30;54893;49.864;19.084;2023-02-26T17:17:50;-1.56;94.50
68109;SHT30;54893;49.864;19.084;2023-02-26T17:22:57;-1.54;94.34
68109;SHT30;54893;49.864;19.084;2023-02-26T17:27:58;-1.57;94.01
68109;SHT30;54893;49.864;19.084;2023-02-26T17:33:02;-1.68;93.75
68109;SHT30;54893;49.864;19.084;2023-02-26T17:38:03;-1.66;93.79
68109;SHT30;54893;49.864;19.084;2023-02-26T17:43:05;-1.66;94.16
68109;SHT30;54893;49.864;19.084;2023-02-26T17:48:07;-1.68;94.06
68109;SHT30;54893;49.864;19.084;2023-02-26T17:53:08;-1.70;94.81
68109;SHT30;54893;49.864;19.084;2023-02-26T17:58:15;-1.71;94.17
68109;SHT30;54893;49.864;19.084;2023-02-26T18:03:17;-1.71;94.26
68109;SHT30;54893;49.864;19.084;2023-02-26T18:08:24;-1.70;94.04
68109;SHT30;54893;49.864;19.084;2023-02-26T18:13:25;-1.71;93.66
68109;SHT30;54893;49.864;19.084;2023-02-26T18:18:28;-1.73;92.28
68109;SHT30;54893;49.864;19.084;2023-02-26T18:23:28;-1.71;92.30
68109;SHT30;54893;49.864;19.084;2023-02-26T18:28:30;-1.68;92.62
68109;SHT30;54893;49.864;19.084;2023-02-26T18:33:30;-1.68;93.37
68109;SHT30;54893;49.864;19.084;2023-02-26T18:38:31;-1.67;93.54
68109;SHT30;54893;49.864;19.084;2023-02-26T18:43:31;-1.64;92.06
68109;SHT30;54893;49.864;19.084;2023-02-26T18:48:31;-1.68;92.76
68109;SHT30;54893;49.864;19.084;2023-02-26T18:53:32;-1.68;92.51
68109;SHT30;54893;49.864;19.084;2023-02-26T18:58:34;-1.68;93.19
68109;SHT30;54893;49.864;19.084;2023-02-26T19:03:34;-1.67;91.92
68109;SHT30;54893;49.864;19.084;2023-02-26T19:08:35;-1.68;93.54
68109;SHT30;54893;49.864;19.084;2023-02-26T19:13:35;-1.67;92.01
68109;SHT30;54893;49.864;19.084;2023-02-26T19:18:36;-1.68;93.07
68109;SHT30;54893;49.864;19.084;2023-02-26T19:23:36;-1.68;92.95
68109;SHT30;54893;49.864;19.084;2023-02-26T19:28:36;-1.71;93.31
68109;SHT30;54893;49.864;19.084;2023-02-26T19:33:37;-1.74;93.49
68109;SHT30;54893;49.864;19.084;2023-02-26T19:38:37;-1.70;94.33
68109;SHT30;54893;49.864;19.084;2023-02-26T19:43:37;-1.73;94.07
68109;SHT30;54893;49.864;19.084;2023-02-26T19:48:39;-1.73;93.48
68109;SHT30;54893;49.864;19.084;2023-02-26T19:53:40;-1.73;94.00
68109;SHT30;54893;49.864;19.084;2023-02-26T19:58:40;-1.74;93.62
68109;SHT30;54893;49.864;19.084;2023-02-26T20:03:42;-1.74;93.80
68109;SHT30;54893;49.864;19.084;2023-02-26T20:08:44;-1.75;93.65
68109;SHT30;54893;49.864;19.084;2023-02-26T20:13:44;-1.73;94.05
68109;SHT30;54893;49.864;19.084;2023-02-26T20:18:45;-1.71;93.13
68109;SHT30;54893;49.864;19.084;2023-02-26T20:23:46;-1.70;93.41
68109;SHT30;54893;49.864;19.084;2023-02-26T20:28:46;-1.67;93.08
68109;SHT30;54893;49.864;19.084;2023-02-26T20:33:46;-1.67;92.99
68109;SHT30;54893;49.864;19.084;2023-02-26T20:38:47;-1.66;93.09
68109;SHT30;54893;49.864;19.084;2023-02-26T20:43:48;-1.61;93.58
68109;SHT30;54893;49.864;19.084;2023-02-26T20:48:49;-1.59;93.26
68109;SHT30;54893;49.864;19.084;2023-02-26T20:53:49;-1.54;93.34
68109;SHT30;54893;49.864;19.084;2023-02-26T20:58:51;-1.57;92.62
68109;SHT30;54893;49.864;19.084;2023-02-26T21:03:51;-1.53;94.05
68109;SHT30;54893;49.864;19.084;2023-02-26T21:08:53;-1.56;93.57
68109;SHT30;54893;49.864;19.084;2023-02-26T21:13:53;-1.56;92.93
68109;SHT30;54893;49.864;19.084;2023-02-26T21:18:55;-1.46;92.24
68109;SHT30;54893;49.864;19.084;2023-02-26T21:23:55;-1.50;92.16
68109;SHT30;54893;49.864;19.084;2023-02-26T21:28:56;-1.47;91.63
68109;SHT30;54893;49.864;19.084;2023-02-26T21:33:56;-1.43;91.95
68109;SHT30;54893;49.864;19.084;2023-02-26T21:38:57;-1.46;92.02
68109;SHT30;54893;49.864;19.084;2023-02-26T21:43:57;-1.44;92.64
68109;SHT30;54893;49.864;19.084;2023-02-26T21:48:57;-1.44;93.33
68109;SHT30;54893;49.864;19.084;2023-02-26T21:53:58;-1.46;92.37
68109;SHT30;54893;49.864;19.084;2023-02-26T21:58:58;-1.44;93.37
68109;SHT30;54893;49.864;19.084;2023-02-26T22:03:59;-1.43;92.49
68109;SHT30;54893;49.864;19.084;2023-02-26T22:08:59;-1.39;91.91
68109;SHT30;54893;49.864;19.084;2023-02-26T22:14:00;-1.40;92.03
68109;SHT30;54893;49.864;19.084;2023-02-26T22:19:00;-1.40;92.93
68109;SHT30;54893;49.864;19.084;2023-02-26T22:24:01;-1.40;91.90
68109;SHT30;54893;49.864;19.084;2023-02-26T22:29:02;-1.37;91.64
68109;SHT30;54893;49.864;19.084;2023-02-26T22:34:03;-1.43;92.24
68109;SHT30;54893;49.864;19.084;2023-02-26T22:39:03;-1.49;92.71
68109;SHT30;54893;49.864;19.084;2023-02-26T22:44:05;-1.51;92.23
68109;SHT30;54893;49.864;19.084;2023-02-26T22:49:05;-1.46;92.02
68109;SHT30;54893;49.864;19.084;2023-02-26T22:54:05;-1.46;91.75
68109;SHT30;54893;49.864;19.084;2023-02-26T22:59:06;-1.46;91.10
68109;SHT30;54893;49.864;19.084;2023-02-26T23:04:06;-1.43;91.79
68109;SHT30;54893;49.864;19.084;2023-02-26T23:09:06;-1.49;91.29
68109;SHT30;54893;49.864;19.084;2023-02-26T23:14:07;-1.50;91.47
68109;SHT30;54893;49.864;19.084;2023-02-26T23:19:07;-1.47;91.31
68109;SHT30;54893;49.864;19.084;2023-02-26T23:24:08;-1.46;91.51
68109;SHT30;54893;49.864;19.084;2023-02-26T23:29:08;-1.40;91.74
68109;SHT30;54893;49.864;19.084;2023-02-26T23:34:09;-1.47;93.02
68109;SHT30;54893;49.864;19.084;2023-02-26T23:39:10;-1.53;92.45
68109;SHT30;54893;49.864;19.084;2023-02-26T23:44:12;-1.56;93.07
68109;SHT30;54893;49.864;19.084;2023-02-26T23:49:13;-1.57;93.39
68109;SHT30;54893;49.864;19.084;2023-02-26T23:54:15;-1.60;93.69
68109;SHT30;54893;49.864;19.084;2023-02-26T23:59:15;-1.59;94.13
